sensor_id;sensor_type;location;lat;lon;timestamp;temperature;humidity
1155;DHT22;566;48.414;9.118;2022-07-22T00:01:36;16.60;97.90
1155;DHT22;566;48.414;9.118;2022-07-22T00:04:02;16.50;97.90
1155;DHT22;566;48.414;9.118;2022-07-22T00:06:29;16.40;98.00
1155;DHT22;566;48.414;9.118;2022-07-22T00:08:55;16.40;97.90
1155;DHT22;566;48.414;9.118;2022-07-22T00:11:21;16.40;98.00
1155;DHT22;566;48.414;9.118;2022-07-22T00:13:47;16.50;98.00
1155;DHT22;566;48.414;9.118;2022-07-22T00:16:15;16.60;98.00
1155;DHT22;566;48.414;9.118;2022-07-22T00:18:41;16.50;98.00
1155;DHT22;566;48.414;9.118;2022-07-22T00:21:08;16.50;97.90
1155;DHT22;566;48.414;9.118;2022-07-22T00:23:35;16.40;98.00
1155;DHT22;566;48.414;9.118;2022-07-22T00:26:00;16.40;98.00
1155;DHT22;566;48.414;9.118;2022-07-22T00:28:26;16.30;97.90
1155;DHT22;566;48.414;9.118;2022-07-22T00:30:52;16.30;98.00
1155;DHT22;566;48.414;9.118;2022-07-22T00:33:20;16.30;97.90
1155;DHT22;566;48.414;9.118;2022-07-22T00:35:46;16.30;98.00
1155;DHT22;566;48.414;9.118;2022-07-22T00:38:14;16.40;98.00
1155;DHT22;566;48.414;9.118;2022-07-22T00:40:40;16.40;98.00
1155;DHT22;566;48.414;9.118;2022-07-22T00:43:06;16.40;98.00
1155;DHT22;566;48.414;9.118;2022-07-22T00:45:31;16.40;98.00
1155;DHT22;566;48.414;9.118;2022-07-22T00:47:57;16.30;98.00
1155;DHT22;566;48.414;9.118;2022-07-22T00:50:23;16.30;98.00
1155;DHT22;566;48.414;9.118;2022-07-22T00:52:49;16.20;98.00
1155;DHT22;566;48.414;9.118;2022-07-22T00:55:15;16.20;98.00
1155;DHT22;566;48.414;9.118;2022-07-22T00:57:42;16.30;98.00
1155;DHT22;566;48.414;9.118;2022-07-22T01:00:11;16.20;98.00
1155;DHT22;566;48.414;9.118;2022-07-22T01:02:37;16.30;98.00
1155;DHT22;566;48.414;9.118;2022-07-22T01:05:05;16.30;98.00
1155;DHT22;566;48.414;9.118;2022-07-22T01:07:31;16.30;98.00
1155;DHT22;566;48.414;9.118;2022-07-22T01:09:57;16.30;98.00
1155;DHT22;566;48.414;9.118;2022-07-22T01:12:23;16.30;98.00
1155;DHT22;566;48.414;9.118;2022-07-22T01:14:48;16.30;98.00
1155;DHT22;566;48.414;9.118;2022-07-22T01:17:14;16.30;98.00
1155;DHT22;566;48.414;9.118;2022-07-22T01:19:40;16.30;98.00
1155;DHT22;566;48.414;9.118;2022-07-22T01:22:06;16.20;98.00
1155;DHT22;566;48.414;9.118;2022-07-22T01:24:32;16.10;98.00
1155;DHT22;566;48.414;9.118;2022-07-22T01:26:58;15.90;97.70
1155;DHT22;566;48.414;9.118;2022-07-22T01:29:24;15.80;97.30
1155;DHT22;566;48.414;9.118;2022-07-22T01:31:52;15.70;97.10
1155;DHT22;566;48.414;9.118;2022-07-22T01:34:18;15.70;96.80
1155;DHT22;566;48.414;9.118;2022-07-22T01:36:44;15.60;96.90
1155;DHT22;566;48.414;9.118;2022-07-22T01:39:10;15.60;96.90
1155;DHT22;566;48.414;9.118;2022-07-22T01:41:35;15.50;96.70
1155;DHT22;566;48.414;9.118;2022-07-22T01:44:01;15.50;96.40
1155;DHT22;566;48.414;9.118;2022-07-22T01:46:27;15.50;96.50
1155;DHT22;566;48.414;9.118;2022-07-22T01:48:53;15.50;96.70
1155;DHT22;566;48.414;9.118;2022-07-22T01:51:19;15.50;96.50
1155;DHT22;566;48.414;9.118;2022-07-22T01:53:45;15.50;96.30
1155;DHT22;566;48.414;9.118;2022-07-22T01:56:11;15.50;96.30
1155;DHT22;566;48.414;9.118;2022-07-22T01:58:36;15.40;96.40
1155;DHT22;566;48.414;9.118;2022-07-22T02:01:02;15.40;96.20
1155;DHT22;566;48.414;9.118;2022-07-22T02:03:28;15.40;96.30
1155;DHT22;566;48.414;9.118;2022-07-22T02:05:54;15.40;96.30
1155;DHT22;566;48.414;9.118;2022-07-22T02:08:20;15.40;96.20
1155;DHT22;566;48.414;9.118;2022-07-22T02:10:45;15.30;96.20
1155;DHT22;566;48.414;9.118;2022-07-22T02:13:11;15.20;95.90
1155;DHT22;566;48.414;9.118;2022-07-22T02:15:36;15.20;95.80
1155;DHT22;566;48.414;9.118;2022-07-22T02:18:17;15.10;95.70
1155;DHT22;566;48.414;9.118;2022-07-22T02:20:44;15.00;95.60
1155;DHT22;566;48.414;9.118;2022-07-22T02:23:10;14.90;95.00
1155;DHT22;566;48.414;9.118;2022-07-22T02:25:46;14.80;94.70
1155;DHT22;566;48.414;9.118;2022-07-22T02:28:12;14.80;94.50
1155;DHT22;566;48.414;9.118;2022-07-22T02:30:38;14.80;94.70
1155;DHT22;566;48.414;9.118;2022-07-22T02:33:04;14.60;94.40
1155;DHT22;566;48.414;9.118;2022-07-22T02:35:30;14.60;94.20
1155;DHT22;566;48.414;9.118;2022-07-22T02:37:55;14.50;94.10
1155;DHT22;566;48.414;9.118;2022-07-22T02:40:21;14.50;93.60
1155;DHT22;566;48.414;9.118;2022-07-22T02:42:47;14.50;93.20
1155;DHT22;566;48.414;9.118;2022-07-22T02:45:12;14.60;93.30
1155;DHT22;566;48.414;9.118;2022-07-22T02:47:53;14.50;93.40
1155;DHT22;566;48.414;9.118;2022-07-22T02:50:20;14.50;93.10
1155;DHT22;566;48.414;9.118;2022-07-22T02:52:46;14.50;92.80
1155;DHT22;566;48.414;9.118;2022-07-22T02:55:12;14.60;92.50
1155;DHT22;566;48.414;9.118;2022-07-22T02:57:38;14.60;93.10
1155;DHT22;566;48.414;9.118;2022-07-22T03:00:06;14.60;93.50
1155;DHT22;566;48.414;9.118;2022-07-22T03:02:33;14.50;93.40
1155;DHT22;566;48.414;9.118;2022-07-22T03:05:02;14.50;93.10
1155;DHT22;566;48.414;9.118;2022-07-22T03:07:31;14.50;92.70
1155;DHT22;566;48.414;9.118;2022-07-22T03:09:59;14.60;92.80
1155;DHT22;566;48.414;9.118;2022-07-22T03:12:25;14.60;93.20
1155;DHT22;566;48.414;9.118;2022-07-22T03:14:50;14.60;93.10
1155;DHT22;566;48.414;9.118;2022-07-22T03:17:16;14.60;93.20
1155;DHT22;566;48.414;9.118;2022-07-22T03:19:42;14.50;93.40
1155;DHT22;566;48.414;9.118;2022-07-22T03:22:07;14.40;93.40
1155;DHT22;566;48.414;9.118;2022-07-22T03:24:33;14.50;92.80
1155;DHT22;566;48.414;9.118;2022-07-22T03:26:59;14.60;92.90
1155;DHT22;566;48.414;9.118;2022-07-22T03:29:25;14.80;93.60
1155;DHT22;566;48.414;9.118;2022-07-22T03:31:50;14.80;93.80
1155;DHT22;566;48.414;9.118;2022-07-22T03:34:16;14.80;94.10
1155;DHT22;566;48.414;9.118;2022-07-22T03:36:43;14.70;94.10
1155;DHT22;566;48.414;9.118;2022-07-22T03:39:08;14.70;94.10
1155;DHT22;566;48.414;9.118;2022-07-22T03:41:34;14.70;93.60
1155;DHT22;566;48.414;9.118;2022-07-22T03:43:59;14.80;93.70
1155;DHT22;566;48.414;9.118;2022-07-22T03:46:25;14.80;94.10
1155;DHT22;566;48.414;9.118;2022-07-22T03:48:51;14.90;94.60
1155;DHT22;566;48.414;9.118;2022-07-22T03:51:16;14.90;94.90
1155;DHT22;566;48.414;9.118;2022-07-22T03:53:42;14.90;94.80
1155;DHT22;566;48.414;9.118;2022-07-22T03:56:08;14.90;94.80
1155;DHT22;566;48.414;9.118;2022-07-22T03:58:33;14.90;94.80
1155;DHT22;566;48.414;9.118;2022-07-22T04:00:59;14.90;95.00
1155;DHT22;566;48.414;9.118;2022-07-22T04:03:25;14.90;95.00
1155;DHT22;566;48.414;9.118;2022-07-22T04:05:50;14.90;95.20
1155;DHT22;566;48.414;9.118;2022-07-22T04:08:17;14.90;95.30
1155;DHT22;566;48.414;9.118;2022-07-22T04:10:43;14.90;95.30
1155;DHT22;566;48.414;9.118;2022-07-22T04:13:11;14.80;94.90
1155;DHT22;566;48.414;9.118;2022-07-22T04:15:37;14.80;94.60
1155;DHT22;566;48.414;9.118;2022-07-22T04:18:03;14.80;94.50
1155;DHT22;566;48.414;9.118;2022-07-22T04:20:29;14.80;94.40
1155;DHT22;566;48.414;9.118;2022-07-22T04:22:54;14.80;94.50
1155;DHT22;566;48.414;9.118;2022-07-22T04:25:20;14.90;94.80
1155;DHT22;566;48.414;9.118;2022-07-22T04:27:46;14.80;95.20
1155;DHT22;566;48.414;9.118;2022-07-22T04:30:11;14.80;94.90
1155;DHT22;566;48.414;9.118;2022-07-22T04:32:37;14.80;94.70
1155;DHT22;566;48.414;9.118;2022-07-22T04:35:03;14.80;94.70
1155;DHT22;566;48.414;9.118;2022-07-22T04:37:30;14.90;94.70
1155;DHT22;566;48.414;9.118;2022-07-22T04:39:55;14.90;94.70
1155;DHT22;566;48.414;9.118;2022-07-22T04:42:21;14.90;94.90
1155;DHT22;566;48.414;9.118;2022-07-22T04:44:50;14.90;94.90
1155;DHT22;566;48.414;9.118;2022-07-22T04:47:17;14.80;94.80
1155;DHT22;566;48.414;9.118;2022-07-22T04:49:43;14.80;94.50
1155;DHT22;566;48.414;9.118;2022-07-22T04:52:09;14.80;94.40
1155;DHT22;566;48.414;9.118;2022-07-22T04:54:37;14.90;94.20
1155;DHT22;566;48.414;9.118;2022-07-22T04:57:03;14.90;94.20
1155;DHT22;566;48.414;9.118;2022-07-22T04:59:32;15.00;94.40
1155;DHT22;566;48.414;9.118;2022-07-22T05:02:01;15.10;94.40
1155;DHT22;566;48.414;9.118;2022-07-22T05:04:34;15.10;94.50
1155;DHT22;566;48.414;9.118;2022-07-22T05:07:00;15.20;94.40
1155;DHT22;566;48.414;9.118;2022-07-22T05:09:28;15.20;94.50
1155;DHT22;566;48.414;9.118;2022-07-22T05:11:53;15.20;94.70
1155;DHT22;566;48.414;9.118;2022-07-22T05:14:22;15.30;94.50
1155;DHT22;566;48.414;9.118;2022-07-22T05:16:50;15.30;94.60
1155;DHT22;566;48.414;9.118;2022-07-22T05:19:19;15.40;94.40
1155;DHT22;566;48.414;9.118;2022-07-22T05:21:45;15.40;94.40
1155;DHT22;566;48.414;9.118;2022-07-22T05:24:11;15.60;94.50
1155;DHT22;566;48.414;9.118;2022-07-22T05:26:37;15.70;94.90
1155;DHT22;566;48.414;9.118;2022-07-22T05:29:03;15.70;95.10
1155;DHT22;566;48.414;9.118;2022-07-22T05:31:29;15.80;95.60
1155;DHT22;566;48.414;9.118;2022-07-22T05:33:55;15.90;95.60
1155;DHT22;566;48.414;9.118;2022-07-22T05:36:21;16.10;95.80
1155;DHT22;566;48.414;9.118;2022-07-22T05:38:46;16.30;96.30
1155;DHT22;566;48.414;9.118;2022-07-22T05:41:12;16.40;97.10
1155;DHT22;566;48.414;9.118;2022-07-22T05:43:38;16.50;97.70
1155;DHT22;566;48.414;9.118;2022-07-22T05:46:03;16.70;98.00
1155;DHT22;566;48.414;9.118;2022-07-22T05:48:29;16.90;98.00
1155;DHT22;566;48.414;9.118;2022-07-22T05:50:55;17.00;98.00
1155;DHT22;566;48.414;9.118;2022-07-22T05:53:20;17.20;98.00
1155;DHT22;566;48.414;9.118;2022-07-22T05:55:52;17.40;98.00
1155;DHT22;566;48.414;9.118;2022-07-22T05:58:18;17.50;98.00
1155;DHT22;566;48.414;9.118;2022-07-22T06:00:43;17.70;98.00
1155;DHT22;566;48.414;9.118;2022-07-22T06:03:09;17.80;98.00
1155;DHT22;566;48.414;9.118;2022-07-22T06:05:35;18.00;98.00
1155;DHT22;566;48.414;9.118;2022-07-22T06:08:04;18.10;98.00
1155;DHT22;566;48.414;9.118;2022-07-22T06:10:30;18.20;98.00
1155;DHT22;566;48.414;9.118;2022-07-22T06:12:56;18.20;97.90
1155;DHT22;566;48.414;9.118;2022-07-22T06:15:21;18.30;97.60
1155;DHT22;566;48.414;9.118;2022-07-22T06:17:47;18.40;97.70
1155;DHT22;566;48.414;9.118;2022-07-22T06:20:12;18.50;97.60
1155;DHT22;566;48.414;9.118;2022-07-22T06:22:41;18.60;97.30
1155;DHT22;566;48.414;9.118;2022-07-22T06:25:07;18.70;97.20
1155;DHT22;566;48.414;9.118;2022-07-22T06:27:34;18.80;96.80
1155;DHT22;566;48.414;9.118;2022-07-22T06:30:00;18.90;96.50
1155;DHT22;566;48.414;9.118;2022-07-22T06:32:25;19.00;96.60
1155;DHT22;566;48.414;9.118;2022-07-22T06:34:51;19.10;96.40
1155;DHT22;566;48.414;9.118;2022-07-22T06:37:16;19.20;96.10
1155;DHT22;566;48.414;9.118;2022-07-22T06:39:42;19.20;95.80
1155;DHT22;566;48.414;9.118;2022-07-22T06:42:08;19.30;95.70
1155;DHT22;566;48.414;9.118;2022-07-22T06:44:33;19.50;95.60
1155;DHT22;566;48.414;9.118;2022-07-22T06:46:59;19.60;95.40
1155;DHT22;566;48.414;9.118;2022-07-22T06:49:24;19.60;95.50
1155;DHT22;566;48.414;9.118;2022-07-22T06:51:50;19.80;95.00
1155;DHT22;566;48.414;9.118;2022-07-22T06:54:16;19.90;94.90
1155;DHT22;566;48.414;9.118;2022-07-22T06:56:41;20.20;94.60
1155;DHT22;566;48.414;9.118;2022-07-22T06:59:07;20.90;93.00
1155;DHT22;566;48.414;9.118;2022-07-22T07:01:35;21.50;91.10
1155;DHT22;566;48.414;9.118;2022-07-22T07:04:01;21.50;90.50
1155;DHT22;566;48.414;9.118;2022-07-22T07:06:27;21.30;91.00
1155;DHT22;566;48.414;9.118;2022-07-22T07:08:53;21.10;91.60
1155;DHT22;566;48.414;9.118;2022-07-22T07:11:19;21.00;92.40
1155;DHT22;566;48.414;9.118;2022-07-22T07:13:44;20.90;92.50
1155;DHT22;566;48.414;9.118;2022-07-22T07:16:13;20.80;92.60
1155;DHT22;566;48.414;9.118;2022-07-22T07:18:38;20.80;93.00
1155;DHT22;566;48.414;9.118;2022-07-22T07:21:04;20.80;93.20
1155;DHT22;566;48.414;9.118;2022-07-22T07:23:33;20.90;92.90
1155;DHT22;566;48.414;9.118;2022-07-22T07:25:59;21.10;92.70
1155;DHT22;566;48.414;9.118;2022-07-22T07:28:24;21.20;92.60
1155;DHT22;566;48.414;9.118;2022-07-22T07:30:53;21.30;92.10
1155;DHT22;566;48.414;9.118;2022-07-22T07:33:19;21.40;92.20
1155;DHT22;566;48.414;9.118;2022-07-22T07:35:45;21.60;92.30
1155;DHT22;566;48.414;9.118;2022-07-22T07:38:11;22.00;91.00
1155;DHT22;566;48.414;9.118;2022-07-22T07:40:36;22.80;88.70
1155;DHT22;566;48.414;9.118;2022-07-22T07:43:02;23.90;86.20
1155;DHT22;566;48.414;9.118;2022-07-22T07:45:28;24.70;83.30
1155;DHT22;566;48.414;9.118;2022-07-22T07:47:54;25.50;81.40
1155;DHT22;566;48.414;9.118;2022-07-22T07:50:20;26.10;79.40
1155;DHT22;566;48.414;9.118;2022-07-22T07:52:45;26.60;78.30
1155;DHT22;566;48.414;9.118;2022-07-22T07:55:14;27.00;77.20
1155;DHT22;566;48.414;9.118;2022-07-22T07:57:40;27.20;76.30
1155;DHT22;566;48.414;9.118;2022-07-22T08:00:10;27.60;75.20
1155;DHT22;566;48.414;9.118;2022-07-22T08:02:37;28.50;73.30
1155;DHT22;566;48.414;9.118;2022-07-22T08:05:03;28.60;72.40
1155;DHT22;566;48.414;9.118;2022-07-22T08:07:29;28.50;73.10
1155;DHT22;566;48.414;9.118;2022-07-22T08:09:55;27.90;73.60
1155;DHT22;566;48.414;9.118;2022-07-22T08:12:20;28.10;73.80
1155;DHT22;566;48.414;9.118;2022-07-22T08:14:46;28.50;73.30
1155;DHT22;566;48.414;9.118;2022-07-22T08:17:12;29.00;71.90
1155;DHT22;566;48.414;9.118;2022-07-22T08:19:38;29.40;71.00
1155;DHT22;566;48.414;9.118;2022-07-22T08:22:04;29.60;70.60
1155;DHT22;566;48.414;9.118;2022-07-22T08:24:29;29.50;70.30
1155;DHT22;566;48.414;9.118;2022-07-22T08:26:55;29.50;70.30
1155;DHT22;566;48.414;9.118;2022-07-22T08:29:21;29.60;69.00
1155;DHT22;566;48.414;9.118;2022-07-22T08:31:49;29.90;69.80
1155;DHT22;566;48.414;9.118;2022-07-22T08:34:15;30.00;69.80
1155;DHT22;566;48.414;9.118;2022-07-22T08:36:40;30.20;69.10
1155;DHT22;566;48.414;9.118;2022-07-22T08:39:06;29.60;70.30
1155;DHT22;566;48.414;9.118;2022-07-22T08:41:36;29.30;70.50
1155;DHT22;566;48.414;9.118;2022-07-22T08:44:04;29.10;71.60
1155;DHT22;566;48.414;9.118;2022-07-22T08:46:30;29.70;70.40
1155;DHT22;566;48.414;9.118;2022-07-22T08:48:56;30.20;69.00
1155;DHT22;566;48.414;9.118;2022-07-22T08:51:22;30.80;67.70
1155;DHT22;566;48.414;9.118;2022-07-22T08:53:48;31.40;66.00
1155;DHT22;566;48.414;9.118;2022-07-22T08:56:14;30.70;66.80
1155;DHT22;566;48.414;9.118;2022-07-22T08:58:40;30.30;68.20
1155;DHT22;566;48.414;9.118;2022-07-22T09:01:11;30.30;68.90
1155;DHT22;566;48.414;9.118;2022-07-22T09:03:57;30.60;67.80
1155;DHT22;566;48.414;9.118;2022-07-22T09:06:25;30.60;67.10
1155;DHT22;566;48.414;9.118;2022-07-22T09:09:04;30.80;66.30
1155;DHT22;566;48.414;9.118;2022-07-22T09:11:31;31.00;66.20
1155;DHT22;566;48.414;9.118;2022-07-22T09:13:59;30.50;67.10
1155;DHT22;566;48.414;9.118;2022-07-22T09:16:42;31.20;65.90
1155;DHT22;566;48.414;9.118;2022-07-22T09:19:09;31.50;65.20
1155;DHT22;566;48.414;9.118;2022-07-22T09:21:36;31.20;66.60
1155;DHT22;566;48.414;9.118;2022-07-22T09:24:04;31.60;65.00
1155;DHT22;566;48.414;9.118;2022-07-22T09:26:32;32.00;64.80
1155;DHT22;566;48.414;9.118;2022-07-22T09:28:59;32.00;64.60
1155;DHT22;566;48.414;9.118;2022-07-22T09:31:35;31.70;64.90
1155;DHT22;566;48.414;9.118;2022-07-22T09:34:04;32.00;64.00
1155;DHT22;566;48.414;9.118;2022-07-22T09:36:31;31.40;65.30
1155;DHT22;566;48.414;9.118;2022-07-22T09:38:57;31.40;66.10
1155;DHT22;566;48.414;9.118;2022-07-22T09:41:26;31.70;66.30
1155;DHT22;566;48.414;9.118;2022-07-22T09:43:51;32.50;64.20
1155;DHT22;566;48.414;9.118;2022-07-22T09:46:36;32.90;63.40
1155;DHT22;566;48.414;9.118;2022-07-22T09:49:04;32.10;63.10
1155;DHT22;566;48.414;9.118;2022-07-22T09:51:30;31.60;65.70
1155;DHT22;566;48.414;9.118;2022-07-22T09:53:57;32.00;64.30
1155;DHT22;566;48.414;9.118;2022-07-22T09:56:23;32.90;62.80
1155;DHT22;566;48.414;9.118;2022-07-22T09:58:49;33.30;61.90
1155;DHT22;566;48.414;9.118;2022-07-22T10:01:15;33.00;62.40
1155;DHT22;566;48.414;9.118;2022-07-22T10:03:42;33.00;63.00
1155;DHT22;566;48.414;9.118;2022-07-22T10:06:08;33.20;59.50
1155;DHT22;566;48.414;9.118;2022-07-22T10:08:37;33.40;56.40
1155;DHT22;566;48.414;9.118;2022-07-22T10:11:05;33.90;56.00
1155;DHT22;566;48.414;9.118;2022-07-22T10:13:32;34.50;58.10
1155;DHT22;566;48.414;9.118;2022-07-22T10:16:00;34.60;53.70
1155;DHT22;566;48.414;9.118;2022-07-22T10:18:26;34.40;54.30
1155;DHT22;566;48.414;9.118;2022-07-22T10:21:08;34.60;53.60
1155;DHT22;566;48.414;9.118;2022-07-22T10:23:35;33.90;57.10
1155;DHT22;566;48.414;9.118;2022-07-22T10:26:02;33.60;60.30
1155;DHT22;566;48.414;9.118;2022-07-22T10:28:36;33.30;62.30
1155;DHT22;566;48.414;9.118;2022-07-22T10:31:28;33.10;61.10
1155;DHT22;566;48.414;9.118;2022-07-22T10:33:55;32.60;61.30
1155;DHT22;566;48.414;9.118;2022-07-22T10:36:34;32.70;60.90
1155;DHT22;566;48.414;9.118;2022-07-22T10:39:12;32.30;63.30
1155;DHT22;566;48.414;9.118;2022-07-22T10:41:42;32.80;59.30
1155;DHT22;566;48.414;9.118;2022-07-22T10:44:10;33.40;56.50
1155;DHT22;566;48.414;9.118;2022-07-22T10:46:53;34.30;53.70
1155;DHT22;566;48.414;9.118;2022-07-22T10:49:22;33.90;52.60
1155;DHT22;566;48.414;9.118;2022-07-22T10:54:33;33.50;52.80
1155;DHT22;566;48.414;9.118;2022-07-22T10:57:02;33.70;52.80
1155;DHT22;566;48.414;9.118;2022-07-22T10:59:29;33.80;52.90
1155;DHT22;566;48.414;9.118;2022-07-22T11:01:55;34.10;53.50
1155;DHT22;566;48.414;9.118;2022-07-22T11:04:26;33.90;54.00
1155;DHT22;566;48.414;9.118;2022-07-22T11:06:54;34.00;53.70
1155;DHT22;566;48.414;9.118;2022-07-22T11:09:23;33.80;53.20
1155;DHT22;566;48.414;9.118;2022-07-22T11:16:51;34.10;53.90
1155;DHT22;566;48.414;9.118;2022-07-22T11:19:26;34.10;54.50
1155;DHT22;566;48.414;9.118;2022-07-22T11:21:54;34.30;53.50
1155;DHT22;566;48.414;9.118;2022-07-22T11:24:23;34.50;53.00
1155;DHT22;566;48.414;9.118;2022-07-22T11:26:51;34.40;53.40
1155;DHT22;566;48.414;9.118;2022-07-22T11:29:24;34.60;53.10
1155;DHT22;566;48.414;9.118;2022-07-22T11:31:51;34.60;53.80
1155;DHT22;566;48.414;9.118;2022-07-22T11:34:17;34.60;51.40
1155;DHT22;566;48.414;9.118;2022-07-22T11:36:45;34.20;51.80
1155;DHT22;566;48.414;9.118;2022-07-22T11:39:13;33.90;52.20
1155;DHT22;566;48.414;9.118;2022-07-22T11:41:39;33.60;52.80
1155;DHT22;566;48.414;9.118;2022-07-22T11:44:06;34.10;53.40
1155;DHT22;566;48.414;9.118;2022-07-22T11:49:02;34.30;51.90
1155;DHT22;566;48.414;9.118;2022-07-22T11:51:30;34.40;52.70
1155;DHT22;566;48.414;9.118;2022-07-22T11:53:57;33.90;54.00
1155;DHT22;566;48.414;9.118;2022-07-22T11:56:23;33.60;58.10
1155;DHT22;566;48.414;9.118;2022-07-22T11:58:51;33.60;55.90
1155;DHT22;566;48.414;9.118;2022-07-22T12:01:22;33.80;53.50
1155;DHT22;566;48.414;9.118;2022-07-22T12:03:51;33.90;53.50
1155;DHT22;566;48.414;9.118;2022-07-22T12:06:18;33.90;54.40
1155;DHT22;566;48.414;9.118;2022-07-22T12:08:51;34.50;52.80
1155;DHT22;566;48.414;9.118;2022-07-22T12:11:18;34.00;56.60
1155;DHT22;566;48.414;9.118;2022-07-22T12:13:46;32.90;58.60
1155;DHT22;566;48.414;9.118;2022-07-22T12:16:23;32.20;61.40
1155;DHT22;566;48.414;9.118;2022-07-22T12:19:05;32.10;61.30
1155;DHT22;566;48.414;9.118;2022-07-22T12:21:33;32.00;61.60
1155;DHT22;566;48.414;9.118;2022-07-22T12:24:07;32.10;60.70
1155;DHT22;566;48.414;9.118;2022-07-22T12:26:36;31.60;62.10
1155;DHT22;566;48.414;9.118;2022-07-22T12:31:55;32.00;61.30
1155;DHT22;566;48.414;9.118;2022-07-22T12:34:39;32.20;59.70
1155;DHT22;566;48.414;9.118;2022-07-22T12:37:19;32.40;59.00
1155;DHT22;566;48.414;9.118;2022-07-22T12:40:03;32.10;59.80
1155;DHT22;566;48.414;9.118;2022-07-22T12:42:35;32.20;60.50
1155;DHT22;566;48.414;9.118;2022-07-22T12:45:03;32.10;61.30
1155;DHT22;566;48.414;9.118;2022-07-22T12:47:48;32.60;60.40
1155;DHT22;566;48.414;9.118;2022-07-22T12:50:28;33.00;59.80
1155;DHT22;566;48.414;9.118;2022-07-22T12:58:08;33.00;56.90
1155;DHT22;566;48.414;9.118;2022-07-22T13:00:37;32.80;58.60
1155;DHT22;566;48.414;9.118;2022-07-22T13:03:04;32.50;60.00
1155;DHT22;566;48.414;9.118;2022-07-22T13:05:30;33.40;58.90
1155;DHT22;566;48.414;9.118;2022-07-22T13:07:55;33.60;57.70
1155;DHT22;566;48.414;9.118;2022-07-22T13:10:26;33.60;58.10
1155;DHT22;566;48.414;9.118;2022-07-22T13:12:53;34.00;57.60
1155;DHT22;566;48.414;9.118;2022-07-22T13:15:19;34.30;56.80
1155;DHT22;566;48.414;9.118;2022-07-22T13:17:46;34.60;55.40
1155;DHT22;566;48.414;9.118;2022-07-22T13:20:13;34.70;56.10
1155;DHT22;566;48.414;9.118;2022-07-22T13:22:44;34.80;55.90
1155;DHT22;566;48.414;9.118;2022-07-22T13:25:10;34.80;56.20
1155;DHT22;566;48.414;9.118;2022-07-22T13:27:36;35.00;55.30
1155;DHT22;566;48.414;9.118;2022-07-22T13:30:02;35.40;55.50
1155;DHT22;566;48.414;9.118;2022-07-22T13:32:28;35.50;54.30
1155;DHT22;566;48.414;9.118;2022-07-22T13:34:54;35.50;55.20
1155;DHT22;566;48.414;9.118;2022-07-22T13:37:21;36.10;54.10
1155;DHT22;566;48.414;9.118;2022-07-22T13:39:46;36.40;53.20
1155;DHT22;566;48.414;9.118;2022-07-22T13:42:14;36.90;49.60
1155;DHT22;566;48.414;9.118;2022-07-22T13:44:43;36.60;50.30
1155;DHT22;566;48.414;9.118;2022-07-22T13:47:09;36.90;52.10
1155;DHT22;566;48.414;9.118;2022-07-22T13:49:35;37.60;49.90
1155;DHT22;566;48.414;9.118;2022-07-22T13:52:01;37.50;49.90
1155;DHT22;566;48.414;9.118;2022-07-22T13:54:27;36.00;52.40
1155;DHT22;566;48.414;9.118;2022-07-22T13:56:53;35.90;51.20
1155;DHT22;566;48.414;9.118;2022-07-22T13:59:18;36.60;51.70
1155;DHT22;566;48.414;9.118;2022-07-22T14:01:47;37.30;50.90
1155;DHT22;566;48.414;9.118;2022-07-22T14:04:13;37.00;51.80
1155;DHT22;566;48.414;9.118;2022-07-22T14:06:39;36.30;52.10
1155;DHT22;566;48.414;9.118;2022-07-22T14:09:04;36.00;52.20
1155;DHT22;566;48.414;9.118;2022-07-22T14:11:30;35.40;53.80
1155;DHT22;566;48.414;9.118;2022-07-22T14:13:56;35.50;54.40
1155;DHT22;566;48.414;9.118;2022-07-22T14:16:21;35.30;54.60
1155;DHT22;566;48.414;9.118;2022-07-22T14:19:04;35.50;53.70
1155;DHT22;566;48.414;9.118;2022-07-22T14:21:30;35.50;53.30
1155;DHT22;566;48.414;9.118;2022-07-22T14:23:56;35.30;54.50
1155;DHT22;566;48.414;9.118;2022-07-22T14:26:21;35.60;53.60
1155;DHT22;566;48.414;9.118;2022-07-22T14:28:47;35.40;54.00
1155;DHT22;566;48.414;9.118;2022-07-22T14:31:13;35.90;53.20
1155;DHT22;566;48.414;9.118;2022-07-22T14:33:39;35.80;52.80
1155;DHT22;566;48.414;9.118;2022-07-22T14:36:05;36.40;51.90
1155;DHT22;566;48.414;9.118;2022-07-22T14:38:30;36.50;52.00
1155;DHT22;566;48.414;9.118;2022-07-22T14:40:56;37.20;51.00
1155;DHT22;566;48.414;9.118;2022-07-22T14:43:22;36.90;51.00
1155;DHT22;566;48.414;9.118;2022-07-22T14:45:47;36.90;51.20
1155;DHT22;566;48.414;9.118;2022-07-22T14:48:13;36.80;50.50
1155;DHT22;566;48.414;9.118;2022-07-22T14:50:39;36.40;51.60
1155;DHT22;566;48.414;9.118;2022-07-22T14:53:04;35.50;53.00
1155;DHT22;566;48.414;9.118;2022-07-22T14:55:30;35.50;52.30
1155;DHT22;566;48.414;9.118;2022-07-22T14:57:56;36.70;50.70
1155;DHT22;566;48.414;9.118;2022-07-22T15:00:21;36.80;50.70
1155;DHT22;566;48.414;9.118;2022-07-22T15:02:47;37.10;50.50
1155;DHT22;566;48.414;9.118;2022-07-22T15:05:13;37.30;50.90
1155;DHT22;566;48.414;9.118;2022-07-22T15:07:38;37.50;49.40
1155;DHT22;566;48.414;9.118;2022-07-22T15:10:06;37.50;50.00
1155;DHT22;566;48.414;9.118;2022-07-22T15:12:32;38.20;49.50
1155;DHT22;566;48.414;9.118;2022-07-22T15:14:57;39.10;49.70
1155;DHT22;566;48.414;9.118;2022-07-22T15:17:23;39.10;48.70
1155;DHT22;566;48.414;9.118;2022-07-22T15:19:49;39.70;46.90
1155;DHT22;566;48.414;9.118;2022-07-22T15:22:14;39.10;47.10
1155;DHT22;566;48.414;9.118;2022-07-22T15:24:43;39.50;47.40
1155;DHT22;566;48.414;9.118;2022-07-22T15:27:08;39.80;47.40
1155;DHT22;566;48.414;9.118;2022-07-22T15:29:34;40.00;47.00
1155;DHT22;566;48.414;9.118;2022-07-22T15:32:00;40.60;45.20
1155;DHT22;566;48.414;9.118;2022-07-22T15:34:31;40.40;46.50
1155;DHT22;566;48.414;9.118;2022-07-22T15:36:58;40.00;45.80
1155;DHT22;566;48.414;9.118;2022-07-22T15:39:23;40.40;44.90
1155;DHT22;566;48.414;9.118;2022-07-22T15:41:49;40.70;45.70
1155;DHT22;566;48.414;9.118;2022-07-22T15:44:15;39.80;45.60
1155;DHT22;566;48.414;9.118;2022-07-22T15:46:43;39.40;47.10
1155;DHT22;566;48.414;9.118;2022-07-22T15:49:09;39.00;47.60
1155;DHT22;566;48.414;9.118;2022-07-22T15:51:38;38.30;47.70
1155;DHT22;566;48.414;9.118;2022-07-22T15:54:03;37.00;48.70
1155;DHT22;566;48.414;9.118;2022-07-22T15:56:29;36.40;51.10
1155;DHT22;566;48.414;9.118;2022-07-22T15:58:55;37.60;49.10
1155;DHT22;566;48.414;9.118;2022-07-22T16:01:42;38.20;48.60
1155;DHT22;566;48.414;9.118;2022-07-22T16:04:08;38.70;48.00
1155;DHT22;566;48.414;9.118;2022-07-22T16:06:35;38.10;48.00
1155;DHT22;566;48.414;9.118;2022-07-22T16:09:01;38.30;48.10
1155;DHT22;566;48.414;9.118;2022-07-22T16:11:27;38.60;47.10
1155;DHT22;566;48.414;9.118;2022-07-22T16:13:53;38.70;48.40
1155;DHT22;566;48.414;9.118;2022-07-22T16:16:19;38.90;47.60
1155;DHT22;566;48.414;9.118;2022-07-22T16:18:45;38.10;48.40
1155;DHT22;566;48.414;9.118;2022-07-22T16:21:11;38.20;48.40
1155;DHT22;566;48.414;9.118;2022-07-22T16:23:37;38.10;48.10
1155;DHT22;566;48.414;9.118;2022-07-22T16:26:08;36.90;50.50
1155;DHT22;566;48.414;9.118;2022-07-22T16:28:36;36.00;51.70
1155;DHT22;566;48.414;9.118;2022-07-22T16:31:12;36.30;52.30
1155;DHT22;566;48.414;9.118;2022-07-22T16:33:47;37.70;50.20
1155;DHT22;566;48.414;9.118;2022-07-22T16:36:23;39.50;48.20